Time;durP1;ratioP1;P1;durP2;ratioP2;P2;SDS_P1;SDS_P2;PMS_P1;PMS_P2;Temp;Humidity;BMP_temperature;BMP_pressure;BME280_temperature;BME280_humidity;BME280_pressure;Samples;Min_cycle;Max_cycle;Signal;HPM_P1;HPM_P2
2021/09/09 00:01:07;;;;;;;;;;;17.30;99.90;;;16.26;94.95;95514.88;10307683;28;1863;-75
2021/09/09 00:06:11;;;;;;;;;;;17.20;99.90;;;16.27;94.87;95527.31;10301181;28;1931;-74
2021/09/09 00:11:14;;;;;;;;;;;17.20;99.90;;;16.26;95.08;95517.59;10301148;28;2205;-74
2021/09/09 00:16:16;;;;;;;;;;;17.20;99.90;;;16.26;95.17;95517.59;10312574;28;2130;-74
2021/09/09 00:21:19;;;;;;;;;;;17.20;99.90;;;16.28;94.54;95521.56;10317479;28;2038;-75
2021/09/09 00:26:22;;;;;;;;;;;17.20;99.90;;;16.24;94.84;95517.13;10313455;28;2162;-74
2021/09/09 00:31:25;;;;;;;;;;;17.20;99.90;;;16.37;94.63;95516.19;10303499;28;2070;-74
2021/09/09 00:36:28;;;;;;;;;;;17.20;99.90;;;16.33;94.43;95526.06;10316348;28;2276;-74
2021/09/09 00:41:31;;;;;;;;;;;17.20;99.90;;;16.26;94.95;95520.31;10316325;28;2300;-74
2021/09/09 00:46:34;;;;;;;;;;;17.20;99.90;;;16.25;94.96;95524.94;10313168;28;2194;-73
2021/09/09 00:51:37;;;;;;;;;;;17.20;99.90;;;16.25;94.77;95524.94;10310306;28;2085;-76
2021/09/09 00:56:40;;;;;;;;;;;17.20;99.90;;;16.16;95.39;95524.13;10324097;28;2169;-75
2021/09/09 01:01:43;;;;;;;;;;;17.10;99.90;;;16.05;95.69;95525.53;10311937;28;2112;-74
2021/09/09 01:06:46;;;;;;;;;;;17.10;99.90;;;15.98;96.69;95525.97;10310061;28;2074;-74
2021/09/09 01:11:49;;;;;;;;;;;17.00;99.90;;;15.92;96.42;95513.69;10309482;28;2164;-75
2021/09/09 01:17:12;;;;;;;;;;;16.90;99.90;;;15.98;96.28;95525.97;10300495;28;2141;-75
2021/09/09 01:22:14;;;;;;;;;;;16.90;99.90;;;16.02;96.12;95526.94;10308209;28;2188;-75
2021/09/09 01:27:18;;;;;;;;;;;16.90;99.90;;;16.04;95.90;95522.00;10320341;28;2135;-75
2021/09/09 01:32:21;;;;;;;;;;;17.00;99.90;;;16.12;94.91;95526.66;10303630;28;2081;-74
2021/09/09 01:37:24;;;;;;;;;;;17.00;99.90;;;16.08;95.55;95531.09;10320490;28;2157;-75
2021/09/09 01:42:26;;;;;;;;;;;17.00;99.90;;;16.12;95.03;95531.28;10314518;28;2162;-75
2021/09/09 01:47:29;;;;;;;;;;;17.00;99.90;;;16.12;94.95;95531.28;10312154;28;2018;-74
2021/09/09 01:52:32;;;;;;;;;;;17.00;99.90;;;16.08;95.66;95531.09;10309755;28;2241;-74
2021/09/09 01:57:35;;;;;;;;;;;17.00;99.90;;;16.17;94.66;95529.22;10309860;28;2030;-74
2021/09/09 02:02:38;;;;;;;;;;;17.00;99.90;;;16.15;95.09;95525.22;10311403;28;2069;-74
2021/09/09 02:07:41;;;;;;;;;;;17.10;99.90;;;16.15;94.77;95534.16;10308852;28;2229;-75
2021/09/09 02:12:44;;;;;;;;;;;17.10;99.90;;;16.17;94.89;95531.94;10319378;28;2102;-74
2021/09/09 02:17:46;;;;;;;;;;;17.10;99.90;;;16.11;95.40;95524.25;10318689;28;2147;-75
2021/09/09 02:22:49;;;;;;;;;;;17.00;99.90;;;16.06;95.99;95533.34;10312035;28;2054;-75
2021/09/09 02:27:52;;;;;;;;;;;17.00;99.90;;;16.04;95.59;95535.56;10314838;28;2058;-76
2021/09/09 02:32:55;;;;;;;;;;;17.00;99.90;;;16.04;95.44;95535.56;10307783;28;2034;-75
2021/09/09 02:37:58;;;;;;;;;;;16.90;99.90;;;16.02;95.46;95532.34;10318496;28;2096;-74
2021/09/09 02:43:00;;;;;;;;;;;16.90;99.90;;;16.02;95.13;95532.34;10324798;28;2238;-74
2021/09/09 02:48:03;;;;;;;;;;;17.00;99.90;;;15.93;95.70;95526.91;10317136;28;2157;-74
2021/09/09 02:53:06;;;;;;;;;;;16.90;99.90;;;15.96;95.16;95520.06;10328024;28;2089;-74
2021/09/09 02:58:09;;;;;;;;;;;16.90;99.90;;;15.92;95.13;95522.59;10326350;28;2161;-75
2021/09/09 03:03:12;;;;;;;;;;;16.90;99.90;;;15.83;95.96;95523.66;10321398;28;2156;-73
2021/09/09 03:08:15;;;;;;;;;;;16.80;99.90;;;15.85;95.86;95519.56;10312101;28;2097;-74
2021/09/09 03:13:18;;;;;;;;;;;16.80;99.90;;;15.81;95.68;95515.84;10304178;28;2092;-74
2021/09/09 03:18:20;;;;;;;;;;;16.80;99.90;;;15.89;95.39;95511.56;10316341;28;2106;-73
2021/09/09 03:23:23;;;;;;;;;;;16.80;99.90;;;15.85;95.64;95510.63;10311603;28;2106;-73
2021/09/09 03:28:26;;;;;;;;;;;16.80;99.90;;;15.90;95.30;95502.31;10325817;28;2233;-74
2021/09/09 03:33:29;;;;;;;;;;;16.80;99.90;;;15.78;96.00;95510.28;10319986;28;2211;-76
2021/09/09 03:38:32;;;;;;;;;;;16.80;99.90;;;15.78;95.82;95504.88;10303968;28;2105;-76
2021/09/09 03:43:34;;;;;;;;;;;16.80;99.90;;;15.72;95.83;95506.09;10329568;28;2224;-74
2021/09/09 03:48:37;;;;;;;;;;;16.70;99.90;;;15.51;96.92;95501.19;10329206;28;2125;-75
2021/09/09 03:53:40;;;;;;;;;;;16.60;99.90;;;15.52;96.68;95502.78;10322281;28;2082;-75
2021/09/09 03:58:43;;;;;;;;;;;16.60;99.90;;;15.53;96.50;95493.56;10304233;28;2514;-74
2021/09/09 04:03:46;;;;;;;;;;;16.50;99.90;;;15.68;95.78;95506.72;10315312;28;2046;-74
2021/09/09 04:08:49;;;;;;;;;;;16.50;99.90;;;15.72;95.08;95506.09;10317444;28;2078;-76
2021/09/09 04:13:52;;;;;;;;;;;16.60;99.90;;;15.50;96.54;95505.00;10317256;28;2118;-74
2021/09/09 04:18:55;;;;;;;;;;;16.50;99.90;;;15.43;96.52;95510.06;10306917;28;2199;-76
2021/09/09 04:23:58;;;;;;;;;;;16.50;99.90;;;15.43;96.40;95512.78;10318285;28;2205;-76
2021/09/09 04:29:01;;;;;;;;;;;16.40;99.90;;;15.44;96.02;95516.28;10313681;28;2214;-75
2021/09/09 04:34:03;;;;;;;;;;;16.40;99.90;;;15.45;95.42;95515.16;10309522;28;2230;-76
2021/09/09 04:39:06;;;;;;;;;;;16.40;99.90;;;15.29;96.70;95522.91;10313701;28;2086;-75
2021/09/09 04:44:09;;;;;;;;;;;16.30;99.90;;;15.30;95.92;95519.88;10316224;28;2034;-75
2021/09/09 04:49:12;;;;;;;;;;;16.20;99.90;;;15.37;94.90;95522.94;10304836;28;2082;-74
2021/09/09 04:54:15;;;;;;;;;;;16.30;99.90;;;15.34;94.87;95523.56;10313043;28;2137;-75
2021/09/09 04:59:17;;;;;;;;;;;16.30;99.90;;;15.40;94.34;95521.53;10320988;28;2137;-73
2021/09/09 05:04:20;;;;;;;;;;;16.30;99.90;;;15.52;93.33;95523.66;10316961;28;2154;-74
2021/09/09 05:09:23;;;;;;;;;;;16.40;99.90;;;15.60;91.84;95526.41;10320700;28;2081;-73
2021/09/09 05:14:26;;;;;;;;;;;16.50;99.90;;;15.70;90.50;95528.06;10310558;28;2102;-73
2021/09/09 05:19:28;;;;;;;;;;;16.60;99.90;;;15.67;90.35;95521.38;10309269;28;2102;-75
2021/09/09 05:24:34;;;;;;;;;;;16.60;99.90;;;15.74;89.89;95525.56;10316284;28;2159;-73
2021/09/09 05:29:37;;;;;;;;;;;16.70;99.90;;;15.89;88.50;95517.78;10299980;28;2209;-74
2021/09/09 05:34:39;;;;;;;;;;;16.70;99.90;;;16.10;86.84;95522.66;10310235;28;2222;-74
2021/09/09 05:39:42;;;;;;;;;;;16.90;99.90;;;16.24;85.02;95512.50;10317219;28;2085;-74
2021/09/09 05:44:45;;;;;;;;;;;17.00;99.90;;;16.41;83.68;95517.13;10311850;28;2129;-74
2021/09/09 05:49:48;;;;;;;;;;;17.10;99.90;;;16.37;83.39;95522.41;10311028;28;2093;-74
2021/09/09 05:54:51;;;;;;;;;;;17.30;99.90;;;16.48;83.23;95528.34;10328032;28;2082;-75
2021/09/09 05:59:54;;;;;;;;;;;17.30;99.90;;;16.69;82.09;95529.31;10316246;28;2195;-75
2021/09/09 06:04:58;;;;;;;;;;;17.40;99.90;;;16.91;81.37;95527.59;10315188;28;2151;-75
2021/09/09 06:10:01;;;;;;;;;;;17.60;99.90;;;17.11;79.07;95523.44;10312957;28;2090;-74
2021/09/09 06:15:04;;;;;;;;;;;17.80;99.90;;;17.20;78.31;95529.66;10313035;28;2034;-74
2021/09/09 06:20:07;;;;;;;;;;;17.90;99.90;;;17.53;77.35;95529.91;10321079;28;2089;-75
2021/09/09 06:25:10;;;;;;;;;;;18.10;99.90;;;17.79;75.04;95527.94;10326826;28;2213;-76
2021/09/09 06:30:13;;;;;;;;;;;18.30;99.90;;;17.93;74.48;95526.94;10294752;28;2046;-74
2021/09/09 06:35:16;;;;;;;;;;;18.50;99.90;;;18.09;72.54;95525.28;10315411;28;2134;-75
2021/09/09 06:40:19;;;;;;;;;;;18.60;99.90;;;18.29;71.61;95524.53;10325465;28;2143;-77
2021/09/09 06:45:22;;;;;;;;;;;18.80;99.90;;;18.62;69.46;95532.00;10334486;28;1887;-76
2021/09/09 06:50:25;;;;;;;;;;;19.10;99.90;;;18.98;67.74;95534.19;10323204;28;2015;-75
2021/09/09 06:55:28;;;;;;;;;;;19.30;99.90;;;19.13;66.37;95535.50;10321935;28;2015;-75
2021/09/09 07:00:30;;;;;;;;;;;19.60;99.90;;;19.35;66.18;95548.00;10322627;28;2105;-75
2021/09/09 07:05:34;;;;;;;;;;;19.80;99.90;;;19.50;64.01;95549.28;10328055;28;1872;-75
2021/09/09 07:10:37;;;;;;;;;;;20.00;99.90;;;19.84;63.35;95545.41;10324949;28;2043;-74
2021/09/09 07:15:40;;;;;;;;;;;20.10;99.90;;;20.12;62.91;95554.56;10314818;28;2120;-76
2021/09/09 07:20:43;;;;;;;;;;;20.40;99.90;;;20.08;61.90;95550.91;10321113;28;2070;-74
2021/09/09 07:25:46;;;;;;;;;;;20.70;99.90;;;20.52;60.48;95546.53;10317520;28;2066;-74
2021/09/09 07:30:50;;;;;;;;;;;20.80;99.90;;;20.70;59.33;95551.75;10312903;28;2198;-75
2021/09/09 07:35:52;;;;;;;;;;;21.00;99.90;;;20.94;59.12;95550.91;10309530;28;2066;-71
2021/09/09 07:40:55;;;;;;;;;;;21.30;99.90;;;21.28;56.50;95552.28;10312415;28;2087;-72
2021/09/09 07:45:59;;;;;;;;;;;21.50;99.90;;;21.48;57.64;95554.06;10314559;28;2042;-73
2021/09/09 07:51:02;;;;;;;;;;;21.80;99.90;;;21.50;56.51;95551.78;10313727;28;2094;-73
2021/09/09 07:56:05;;;;;;;;;;;22.00;99.90;;;21.73;55.89;95548.47;10321373;28;2015;-73
2021/09/09 08:01:08;;;;;;;;;;;22.20;99.90;;;22.19;54.36;95552.41;10312802;28;2838;-72
2021/09/09 08:06:11;;;;;;;;;;;22.40;99.90;;;22.37;54.53;95552.84;10319952;28;2104;-73
2021/09/09 08:11:14;;;;;;;;;;;22.80;99.90;;;22.51;53.90;95563.34;10314428;28;2133;-73
2021/09/09 08:16:17;;;;;;;;;;;23.00;99.90;;;22.96;50.80;95559.31;10317455;28;1911;-73
2021/09/09 08:21:20;;;;;;;;;;;23.20;99.90;;;23.18;48.96;95567.66;10312545;28;2043;-73
2021/09/09 08:26:23;;;;;;;;;;;23.40;99.90;;;23.50;47.96;95570.28;10319887;28;1836;-73
2021/09/09 08:31:27;;;;;;;;;;;23.60;99.90;;;23.62;50.11;95572.91;10291757;28;2335;-73
2021/09/09 08:36:30;;;;;;;;;;;23.90;99.90;;;23.39;50.37;95574.75;10322687;28;2004;-73
2021/09/09 08:41:39;;;;;;;;;;;23.90;99.90;;;23.51;48.71;95574.59;10569038;27;2062;-73
2021/09/09 08:46:42;;;;;;;;;;;24.10;99.90;;;24.05;47.78;95572.88;10555527;28;2065;-72
2021/09/09 08:51:44;;;;;;;;;;;24.30;99.90;;;24.33;45.88;95572.63;10566251;28;2046;-73
2021/09/09 08:56:47;;;;;;;;;;;24.50;99.90;;;24.29;47.20;95583.53;10562658;28;2391;-73
2021/09/09 09:01:50;;;;;;;;;;;24.70;99.90;;;24.41;48.00;95577.09;10567280;28;2022;-72
2021/09/09 09:06:53;;;;;;;;;;;24.80;99.90;;;24.23;48.12;95583.03;10552060;28;2024;-73
2021/09/09 09:11:56;;;;;;;;;;;24.80;99.90;;;24.58;47.14;95582.09;10549149;28;1915;-73
2021/09/09 09:17:00;;;;;;;;;;;24.80;99.90;;;24.58;46.53;95584.84;10549408;28;1991;-73
2021/09/09 09:22:03;;;;;;;;;;;25.00;99.90;;;24.65;45.97;95586.91;10546253;28;1976;-73
2021/09/09 09:27:09;;;;;;;;;;;25.20;99.90;;;24.83;47.30;95581.69;10545135;28;2086;-73
2021/09/09 09:32:12;;;;;;;;;;;25.30;99.90;;;24.61;46.70;95586.03;10542011;28;2151;-74
2021/09/09 09:37:15;;;;;;;;;;;25.20;99.90;;;24.94;46.90;95579.88;10541307;28;2015;-73
2021/09/09 09:42:17;;;;;;;;;;;25.40;99.90;;;24.79;45.28;95578.88;10546243;28;2264;-72
2021/09/09 09:47:20;;;;;;;;;;;25.40;99.90;;;25.20;45.06;95576.34;10547061;28;1984;-73
2021/09/09 09:52:24;;;;;;;;;;;25.50;99.90;;;24.91;45.89;95577.88;10522141;27;1947;-73
2021/09/09 09:57:27;;;;;;;;;;;25.60;99.90;;;25.07;45.48;95581.28;10519797;28;2094;-73
2021/09/09 10:02:30;;;;;;;;;;;25.60;99.90;;;24.89;45.16;95581.00;10518379;28;1845;-74
2021/09/09 10:07:33;;;;;;;;;;;25.50;99.90;;;24.75;47.50;95586.28;10516350;28;2154;-74
2021/09/09 10:12:36;;;;;;;;;;;25.60;99.90;;;24.93;46.42;95589.28;10504188;28;1988;-76
2021/09/09 10:17:38;;;;;;;;;;;25.60;99.90;;;24.86;46.02;95587.22;10516657;28;2007;-73
2021/09/09 10:22:41;;;;;;;;;;;25.60;99.90;;;24.95;46.25;95584.22;10522787;28;1865;-78
2021/09/09 10:27:44;;;;;;;;;;;25.50;99.90;;;24.85;47.49;95579.34;10528722;28;1984;-77
2021/09/09 10:32:47;;;;;;;;;;;25.60;99.90;;;25.01;47.15;95574.50;10517309;28;2328;-76
2021/09/09 10:37:50;;;;;;;;;;;25.70;99.90;;;24.86;48.19;95576.22;10524884;28;2122;-77
2021/09/09 10:42:53;;;;;;;;;;;25.60;99.90;;;25.12;46.98;95567.19;10560429;28;1991;-74
2021/09/09 10:47:56;;;;;;;;;;;25.70;99.90;;;25.39;46.42;95567.97;10541823;28;2107;-77
2021/09/09 10:52:59;;;;;;;;;;;25.90;99.90;;;25.20;46.27;95554.34;10516228;28;2031;-77
2021/09/09 10:58:02;;;;;;;;;;;25.90;99.90;;;25.36;45.88;95559.66;10530056;28;2344;-74
2021/09/09 11:03:05;;;;;;;;;;;26.00;99.90;;;25.58;44.81;95554.03;10520854;28;2039;-75
2021/09/09 11:08:08;;;;;;;;;;;26.10;99.90;;;25.57;44.51;95548.91;10532871;28;2035;-76
2021/09/09 11:13:11;;;;;;;;;;;26.10;99.90;;;25.31;43.95;95553.31;10531852;28;1844;-76
2021/09/09 11:18:14;;;;;;;;;;;26.00;99.90;;;25.22;44.82;95541.81;10521959;28;2078;-76
2021/09/09 11:23:17;;;;;;;;;;;26.00;99.90;;;25.26;45.12;95545.41;10526506;28;2090;-76
2021/09/09 11:28:19;;;;;;;;;;;26.10;99.90;;;25.46;44.09;95548.78;10523924;28;2079;-76
2021/09/09 11:33:22;;;;;;;;;;;26.10;99.90;;;25.57;43.72;95549.69;10524854;28;1999;-77
2021/09/09 11:38:25;;;;;;;;;;;26.20;99.90;;;26.05;42.38;95535.28;10539127;28;1996;-76
2021/09/09 11:43:28;;;;;;;;;;;26.50;99.90;;;26.23;43.07;95538.22;10526615;28;2051;-77
2021/09/09 11:48:31;;;;;;;;;;;26.80;99.90;;;26.29;43.23;95543.00;10526065;28;2114;-76
2021/09/09 11:53:34;;;;;;;;;;;27.00;99.90;;;26.39;41.88;95547.00;10525413;28;2082;-77
2021/09/09 11:58:37;;;;;;;;;;;27.00;99.90;;;26.37;42.45;95543.84;10521557;28;1909;-77
2021/09/09 12:03:40;;;;;;;;;;;27.10;99.90;;;26.23;42.61;95539.00;10512070;28;1924;-77
2021/09/09 12:08:43;;;;;;;;;;;27.10;99.90;;;26.25;42.69;95539.41;10535971;28;2102;-76
2021/09/09 12:13:46;;;;;;;;;;;27.10;99.90;;;25.81;44.08;95542.13;10562681;28;1881;-76
2021/09/09 12:18:48;;;;;;;;;;;26.70;99.90;;;25.45;45.58;95546.38;10541979;28;2079;-76
2021/09/09 12:23:51;;;;;;;;;;;26.40;99.90;;;25.34;45.44;95538.81;10561286;28;2208;-77
2021/09/09 12:28:54;;;;;;;;;;;26.10;99.90;;;24.93;45.75;95540.59;10548744;28;2027;-76
2021/09/09 12:33:57;;;;;;;;;;;25.90;99.90;;;25.37;43.57;95541.97;10539631;28;1882;-77
2021/09/09 12:39:01;;;;;;;;;;;26.00;99.90;;;26.04;43.32;95536.47;10551177;28;2058;-77
2021/09/09 12:44:04;;;;;;;;;;;26.40;99.90;;;26.25;41.84;95522.88;10522953;28;2093;-79
2021/09/09 12:49:07;;;;;;;;;;;26.80;99.90;;;26.35;41.51;95529.66;10521608;28;2463;-79
2021/09/09 12:54:10;;;;;;;;;;;27.00;99.90;;;26.28;39.22;95532.34;10522689;28;1971;-77
2021/09/09 12:59:13;;;;;;;;;;;27.00;99.90;;;26.12;40.93;95518.81;10532973;28;1982;-75
2021/09/09 13:04:15;;;;;;;;;;;26.90;99.90;;;25.81;41.46;95531.91;10527798;28;1901;-78
2021/09/09 13:09:18;;;;;;;;;;;26.70;99.90;;;25.74;40.20;95526.31;10561529;28;1996;-77
2021/09/09 13:14:21;;;;;;;;;;;26.60;99.90;;;25.58;41.99;95523.78;10550822;28;1850;-77
2021/09/09 13:19:24;;;;;;;;;;;26.40;99.90;;;25.29;43.49;95519.88;10532314;28;2098;-78
2021/09/09 13:24:28;;;;;;;;;;;26.30;99.90;;;24.93;42.09;95526.03;10523829;28;1803;-79
2021/09/09 13:29:31;;;;;;;;;;;26.00;99.90;;;24.91;41.35;95533.88;10532289;28;2182;-77
2021/09/09 13:34:34;;;;;;;;;;;25.80;99.90;;;24.98;41.74;95525.72;10536807;28;1901;-79
2021/09/09 13:39:37;;;;;;;;;;;25.80;99.90;;;25.10;42.16;95528.28;10558599;28;2119;-77
2021/09/09 13:44:39;;;;;;;;;;;25.80;99.90;;;25.30;40.51;95513.22;10573942;28;1908;-79
2021/09/09 13:49:44;;;;;;;;;;;26.00;99.90;;;25.02;40.22;95501.84;10571849;28;1772;-76
2021/09/09 13:55:00;;;;;;;;;;;25.90;98.10;;;25.06;39.54;95508.97;10565689;28;2082;-77
2021/09/09 14:00:03;;;;;;;;;;;25.80;97.40;;;25.19;37.79;95504.03;10564565;28;1957;-75
2021/09/09 14:05:10;;;;;;;;;;;25.80;95.30;;;25.35;37.82;95495.59;10542261;28;2122;-76
2021/09/09 14:10:13;;;;;;;;;;;26.00;95.20;;;24.99;38.82;95491.56;10545375;28;2019;-77
2021/09/09 14:15:16;;;;;;;;;;;25.90;95.00;;;25.08;39.69;95494.06;10534537;28;2019;-76
2021/09/09 14:20:18;;;;;;;;;;;25.80;96.50;;;25.19;39.82;95484.78;10542742;28;1980;-75
2021/09/09 14:25:21;;;;;;;;;;;25.90;96.60;;;25.17;40.39;95489.88;10546544;28;1917;-77
2021/09/09 14:30:24;;;;;;;;;;;25.90;97.20;;;25.11;40.91;95480.34;10539371;28;2066;-77
2021/09/09 14:35:27;;;;;;;;;;;25.90;97.30;;;25.08;41.20;95483.06;10556637;28;2364;-77
2021/09/09 14:40:30;;;;;;;;;;;25.90;98.10;;;25.01;42.02;95481.78;10557748;28;2031;-77
2021/09/09 14:45:33;;;;;;;;;;;25.80;98.60;;;25.05;42.90;95488.13;10554671;28;1857;-76
2021/09/09 14:50:36;;;;;;;;;;;25.80;99.90;;;25.33;43.00;95481.41;10548319;28;2007;-77
2021/09/09 14:55:39;;;;;;;;;;;25.90;99.90;;;25.43;42.86;95477.97;10540256;28;2075;-76
2021/09/09 15:00:42;;;;;;;;;;;26.00;99.90;;;25.47;42.88;95478.03;10529928;28;2195;-75
2021/09/09 15:05:46;;;;;;;;;;;26.10;99.90;;;25.11;44.40;95479.56;10532423;28;2071;-76
2021/09/09 15:10:49;;;;;;;;;;;26.10;99.90;;;24.95;45.13;95486.03;10549988;28;1808;-76
2021/09/09 15:15:52;;;;;;;;;;;25.80;99.90;;;24.96;44.52;95486.81;10553161;28;2054;-76
2021/09/09 15:20:55;;;;;;;;;;;25.80;99.90;;;24.90;44.90;95483.59;10544260;28;2132;-75
2021/09/09 15:25:58;;;;;;;;;;;25.70;99.90;;;24.82;45.04;95481.94;10554289;28;2042;-77
2021/09/09 15:31:01;;;;;;;;;;;25.70;99.90;;;25.01;44.84;95483.75;10552020;28;2102;-76
2021/09/09 15:36:04;;;;;;;;;;;25.60;99.90;;;25.16;45.28;95469.03;10559179;28;2024;-75
2021/09/09 15:41:07;;;;;;;;;;;25.80;99.90;;;25.27;44.91;95485.66;10550910;28;2158;-77
2021/09/09 15:46:10;;;;;;;;;;;25.90;99.90;;;25.32;44.90;95477.88;10545806;28;1830;-76
2021/09/09 15:51:14;;;;;;;;;;;26.00;99.90;;;25.54;45.69;95472.59;10534135;28;2300;-75
2021/09/09 15:56:17;;;;;;;;;;;26.10;99.90;;;25.63;43.87;95477.78;10531251;28;2048;-77
2021/09/09 16:01:20;;;;;;;;;;;26.20;99.90;;;25.49;43.78;95472.94;10535563;28;2071;-77
2021/09/09 16:06:24;;;;;;;;;;;26.20;99.90;;;25.36;45.68;95466.91;10529470;28;2030;-76
2021/09/09 16:11:27;;;;;;;;;;;26.10;99.90;;;25.36;43.74;95466.09;10538410;28;2206;-78
2021/09/09 16:16:30;;;;;;;;;;;26.10;99.90;;;25.31;44.42;95462.50;10540696;28;2147;-77
2021/09/09 16:21:33;;;;;;;;;;;26.00;99.90;;;25.45;42.99;95455.59;10545684;28;1978;-77
2021/09/09 16:26:36;;;;;;;;;;;26.00;99.90;;;25.14;44.82;95465.88;10544211;28;2135;-77
2021/09/09 16:31:38;;;;;;;;;;;26.00;99.90;;;25.04;44.96;95461.00;10527705;28;2110;-77
2021/09/09 16:36:43;;;;;;;;;;;25.80;99.90;;;24.87;44.99;95464.31;10523987;28;2152;-75
2021/09/09 16:41:46;;;;;;;;;;;25.80;99.90;;;24.89;44.75;95470.25;10542360;28;2102;-77
2021/09/09 16:46:49;;;;;;;;;;;25.70;99.90;;;24.62;45.52;95464.78;10534623;28;1917;-76
2021/09/09 16:51:52;;;;;;;;;;;25.50;99.90;;;24.37;46.55;95469.91;10541422;28;1939;-76
2021/09/09 16:56:58;;;;;;;;;;;25.30;99.90;;;24.15;46.93;95465.19;10530768;28;2027;-75
2021/09/09 17:02:01;;;;;;;;;;;25.10;99.90;;;23.81;48.42;95467.00;10559599;28;2125;-78
2021/09/09 17:07:06;;;;;;;;;;;24.90;99.90;;;23.60;49.37;95468.19;10558247;28;1988;-76
2021/09/09 17:12:09;;;;;;;;;;;24.70;99.90;;;23.33;49.63;95459.03;10556276;28;2066;-77
2021/09/09 17:17:12;;;;;;;;;;;24.40;99.90;;;22.98;51.34;95461.91;10563163;28;1829;-76
2021/09/09 17:22:15;;;;;;;;;;;24.10;99.90;;;22.60;52.47;95470.84;10562480;28;1951;-77
2021/09/09 17:27:18;;;;;;;;;;;23.80;99.90;;;22.31;53.34;95467.44;10557588;28;2058;-75
2021/09/09 17:32:20;;;;;;;;;;;23.60;99.90;;;22.08;53.80;95471.97;10563291;28;1896;-76
2021/09/09 17:37:23;;;;;;;;;;;23.30;99.90;;;21.90;54.83;95471.53;10556626;28;1885;-77
2021/09/09 17:42:26;;;;;;;;;;;23.10;99.90;;;21.82;55.35;95477.94;10554292;28;2059;-78
2021/09/09 17:47:50;;;;;;;;;;;23.00;99.90;;;21.53;56.77;95474.50;10551096;28;1786;-77
2021/09/09 17:52:53;;;;;;;;;;;22.70;99.90;;;21.25;58.04;95484.66;10549444;28;2020;-77
2021/09/09 17:57:57;;;;;;;;;;;22.50;99.90;;;21.00;59.22;95484.75;10555830;28;2129;-77
2021/09/09 18:03:00;;;;;;;;;;;22.30;99.90;;;20.96;60.03;95488.50;10547986;28;2097;-76
2021/09/09 18:08:03;;;;;;;;;;;22.10;99.90;;;20.78;60.96;95499.72;10550032;28;2135;-76
2021/09/09 18:13:06;;;;;;;;;;;22.00;99.90;;;20.77;61.28;95506.31;10546760;28;2163;-78
2021/09/09 18:18:09;;;;;;;;;;;21.90;99.90;;;20.65;61.74;95511.00;10548103;28;2135;-77
2021/09/09 18:23:12;;;;;;;;;;;21.70;99.90;;;20.40;62.96;95521.91;10552534;28;2079;-77
2021/09/09 18:28:15;;;;;;;;;;;21.60;99.90;;;20.33;63.27;95520.91;10536581;28;1953;-77
2021/09/09 18:33:18;;;;;;;;;;;21.50;99.90;;;20.29;62.48;95520.78;10544160;28;2081;-78
2021/09/09 18:38:21;;;;;;;;;;;21.40;99.90;;;20.12;63.25;95523.75;10549115;28;2158;-77
2021/09/09 18:43:23;;;;;;;;;;;21.30;99.90;;;19.96;63.17;95540.78;10551556;28;2070;-77
2021/09/09 18:48:26;;;;;;;;;;;21.20;99.90;;;19.92;63.49;95545.34;10546067;28;2251;-77
2021/09/09 18:53:30;;;;;;;;;;;21.10;99.90;;;19.92;63.80;95550.00;10555104;28;2059;-78
2021/09/09 18:58:33;;;;;;;;;;;21.00;99.90;;;19.79;64.25;95556.56;10541146;28;2202;-79
2021/09/09 19:03:37;;;;;;;;;;;20.90;99.90;;;19.80;64.28;95553.50;10539437;28;2089;-78
2021/09/09 19:08:41;;;;;;;;;;;20.80;99.90;;;19.59;65.41;95558.97;10547025;28;2083;-75
2021/09/09 19:13:45;;;;;;;;;;;20.80;99.90;;;19.49;65.77;95561.31;10543940;28;2264;-76
2021/09/09 19:19:08;;;;;;;;;;;20.70;99.90;;;19.34;66.69;95566.28;10531244;28;2134;-77
2021/09/09 19:24:10;;;;;;;;;;;20.50;99.90;;;19.18;67.43;95563.34;10537902;28;2097;-76
2021/09/09 19:29:13;;;;;;;;;;;20.40;99.90;;;19.08;68.13;95562.94;10544882;28;2265;-77
2021/09/09 19:34:16;;;;;;;;;;;20.20;99.90;;;18.95;69.08;95561.28;10540118;28;2002;-76
2021/09/09 19:39:19;;;;;;;;;;;20.20;99.90;;;18.96;69.30;95569.16;10543603;28;2028;-77
2021/09/09 19:44:22;;;;;;;;;;;20.10;99.90;;;18.83;70.33;95568.28;10523813;28;2225;-77
2021/09/09 19:49:25;;;;;;;;;;;20.00;99.90;;;18.75;70.81;95571.84;10522232;28;2361;-77
2021/09/09 19:54:28;;;;;;;;;;;19.80;99.90;;;18.66;71.35;95579.25;10527131;28;2096;-76
2021/09/09 19:59:30;;;;;;;;;;;19.80;99.90;;;18.57;72.10;95578.47;10528166;28;2056;-77
2021/09/09 20:04:33;;;;;;;;;;;19.70;99.90;;;18.58;71.94;95591.00;10543969;28;2115;-77
2021/09/09 20:09:36;;;;;;;;;;;19.70;99.90;;;18.55;72.17;95583.47;10543033;28;2130;-76
2021/09/09 20:14:39;;;;;;;;;;;19.60;99.90;;;18.48;72.79;95592.16;10541526;28;2210;-77
2021/09/09 20:19:42;;;;;;;;;;;19.60;99.90;;;18.41;72.92;95591.06;10536667;28;2059;-76
2021/09/09 20:24:45;;;;;;;;;;;19.50;99.90;;;18.40;73.56;95590.28;10535752;28;2067;-77
2021/09/09 20:29:48;;;;;;;;;;;19.40;99.90;;;18.38;73.64;95603.38;10526870;28;2071;-77
2021/09/09 20:34:50;;;;;;;;;;;19.40;99.90;;;18.32;73.79;95600.06;10525492;28;2074;-76
2021/09/09 20:39:53;;;;;;;;;;;19.40;99.90;;;18.22;74.21;95600.44;10530159;28;2126;-77
2021/09/09 20:44:56;;;;;;;;;;;19.30;99.90;;;18.13;74.71;95599.66;10535601;28;2068;-78
2021/09/09 20:49:59;;;;;;;;;;;19.20;99.90;;;18.09;74.75;95601.44;10540737;28;2031;-78
2021/09/09 20:55:02;;;;;;;;;;;19.20;99.90;;;18.05;75.28;95606.72;10537931;28;2252;-76
2021/09/09 21:00:05;;;;;;;;;;;19.10;99.90;;;18.02;75.06;95607.38;10540693;28;2105;-78
2021/09/09 21:05:08;;;;;;;;;;;19.10;99.90;;;17.99;75.42;95609.94;10532279;28;2584;-76
2021/09/09 21:10:11;;;;;;;;;;;19.00;99.90;;;17.94;75.45;95624.53;10539060;28;2098;-76
2021/09/09 21:15:13;;;;;;;;;;;19.00;99.90;;;17.93;75.38;95624.84;10536222;28;2043;-76
2021/09/09 21:20:16;;;;;;;;;;;19.00;99.90;;;17.88;75.92;95616.84;10533583;28;1999;-77
2021/09/09 21:25:20;;;;;;;;;;;18.90;99.90;;;17.75;75.87;95621.34;10539950;28;2034;-77
2021/09/09 21:30:23;;;;;;;;;;;18.80;99.90;;;17.77;75.80;95619.91;10547734;28;2132;-77
2021/09/09 21:35:26;;;;;;;;;;;18.80;99.90;;;17.76;75.42;95615.59;10549756;28;2094;-78
2021/09/09 21:40:29;;;;;;;;;;;18.80;99.90;;;17.65;75.57;95627.91;10556122;28;2182;-77
2021/09/09 21:45:32;;;;;;;;;;;18.70;99.90;;;17.65;75.35;95636.06;10554698;28;1998;-76
2021/09/09 21:50:35;;;;;;;;;;;18.70;99.90;;;17.62;75.59;95636.69;10556833;28;2030;-77
2021/09/09 21:55:38;;;;;;;;;;;18.60;99.90;;;17.56;76.71;95643.44;10550633;28;2070;-76
2021/09/09 22:00:41;;;;;;;;;;;18.60;99.90;;;17.52;76.51;95643.25;10541275;28;2166;-77
2021/09/09 22:05:44;;;;;;;;;;;18.50;99.90;;;17.49;76.98;95648.53;10545825;28;2030;-77
2021/09/09 22:10:47;;;;;;;;;;;18.50;99.90;;;17.51;76.80;95646.31;10545606;28;2197;-77
2021/09/09 22:15:50;;;;;;;;;;;18.50;99.90;;;17.52;77.50;95640.53;10545159;28;2070;-75
2021/09/09 22:20:53;;;;;;;;;;;18.50;99.90;;;17.45;77.71;95636.72;10541125;28;2101;-75
2021/09/09 22:25:56;;;;;;;;;;;18.50;99.90;;;17.43;78.35;95642.47;10534942;28;2269;-77
2021/09/09 22:30:58;;;;;;;;;;;18.40;99.90;;;17.39;78.76;95635.28;10514369;28;2238;-76
2021/09/09 22:36:01;;;;;;;;;;;18.40;99.90;;;17.35;78.49;95637.03;10533780;28;2179;-76
2021/09/09 22:41:04;;;;;;;;;;;18.40;99.90;;;17.30;79.28;95637.97;10520983;28;2043;-76
2021/09/09 22:46:07;;;;;;;;;;;18.30;99.90;;;17.33;79.33;95640.06;10520495;28;2068;-76
2021/09/09 22:51:10;;;;;;;;;;;18.30;99.90;;;17.31;79.36;95636.09;10515167;28;2030;-75
2021/09/09 22:56:13;;;;;;;;;;;18.30;99.90;;;17.24;79.42;95634.66;10537443;28;2150;-76
2021/09/09 23:01:16;;;;;;;;;;;18.30;99.90;;;17.33;79.43;95639.28;10535666;28;2171;-78
2021/09/09 23:06:19;;;;;;;;;;;18.30;99.90;;;17.40;79.37;95642.31;10523608;28;2041;-76
2021/09/09 23:11:22;;;;;;;;;;;18.30;99.90;;;17.45;78.91;95639.44;10516508;28;2143;-76